createdAt,value
2019-02-02T00:01:18.558Z,25.03
2019-02-02T00:03:45.903Z,25.93
2019-02-02T00:06:14.010Z,25.33
2019-02-02T00:08:41.374Z,32.33
2019-02-02T00:11:08.618Z,34.70
2019-02-02T00:13:36.560Z,35.73
2019-02-02T00:16:04.408Z,33.30
2019-02-02T00:18:31.802Z,31.07
2019-02-02T00:20:59.639Z,31.80
2019-02-02T00:23:27.028Z,31.57
2019-02-02T00:25:54.720Z,28.83
2019-02-02T00:28:22.357Z,27.03
2019-02-02T00:30:49.711Z,27.63
2019-02-02T00:33:17.545Z,26.80
2019-02-02T00:35:44.856Z,29.53
2019-02-02T00:38:12.172Z,28.27
2019-02-02T00:40:39.519Z,28.20
2019-02-02T00:43:06.847Z,28.53
2019-02-02T00:45:34.414Z,27.87
2019-02-02T00:48:01.671Z,28.43
2019-02-02T00:50:29.314Z,25.50
2019-02-02T00:52:56.944Z,26.83
2019-02-02T00:55:24.260Z,26.83
2019-02-02T00:57:53.916Z,28.93
2019-02-02T01:00:21.231Z,28.70
2019-02-02T01:02:48.549Z,28.50
2019-02-02T01:05:20.373Z,27.80
2019-02-02T01:07:48.095Z,28.47
2019-02-02T01:10:19.414Z,27.97
2019-02-02T01:12:48.632Z,28.90
2019-02-02T01:15:16.569Z,30.50
2019-02-02T01:17:44.438Z,27.87
2019-02-02T01:20:15.049Z,28.40
2019-02-02T01:22:42.441Z,27.70
2019-02-02T01:25:10.151Z,28.37
2019-02-02T01:27:37.793Z,27.53
2019-02-02T01:30:09.441Z,27.90
2019-02-02T01:32:36.739Z,26.83
2019-02-02T01:35:05.070Z,30.33
2019-02-02T01:37:32.524Z,29.03
2019-02-02T01:39:59.905Z,26.33
2019-02-02T01:42:27.227Z,28.20
2019-02-02T01:44:54.548Z,27.03
2019-02-02T01:47:21.874Z,29.30
2019-02-02T01:49:49.224Z,28.53
2019-02-02T01:52:16.510Z,28.00
2019-02-02T01:54:43.840Z,29.20
2019-02-02T01:57:11.083Z,27.97
2019-02-02T01:59:38.338Z,27.10
2019-02-02T02:02:05.580Z,27.67
2019-02-02T02:04:32.913Z,29.07
2019-02-02T02:07:00.151Z,29.23
2019-02-02T02:09:27.390Z,28.10
2019-02-02T02:11:54.612Z,28.87
2019-02-02T02:14:21.846Z,30.27
2019-02-02T02:16:49.093Z,27.83
2019-02-02T02:19:16.863Z,28.63
2019-02-02T02:21:44.196Z,29.53
2019-02-02T02:24:11.444Z,29.90
2019-02-02T02:26:38.700Z,31.27
2019-02-02T02:29:05.935Z,28.37
2019-02-02T02:31:33.197Z,27.57
2019-02-02T02:34:00.498Z,30.97
2019-02-02T02:36:27.814Z,26.83
2019-02-02T02:38:55.115Z,27.30
2019-02-02T02:41:34.717Z,28.20
2019-02-02T02:44:01.948Z,26.30
2019-02-02T02:46:29.272Z,28.07
2019-02-02T02:48:56.536Z,29.23
2019-02-02T02:51:23.747Z,27.37
2019-02-02T02:53:51.175Z,30.73
2019-02-02T02:56:20.815Z,32.50
2019-02-02T02:58:48.041Z,31.93
2019-02-02T03:01:15.297Z,31.70
2019-02-02T03:03:46.115Z,29.57
2019-02-02T03:06:13.786Z,33.70
2019-02-02T03:08:41.445Z,31.93
2019-02-02T03:11:11.852Z,31.00
2019-02-02T03:13:39.487Z,29.50
2019-02-02T03:16:06.799Z,31.67
2019-02-02T03:18:34.062Z,27.60
2019-02-02T03:21:01.291Z,29.03
2019-02-02T03:23:28.558Z,32.37
2019-02-02T03:25:55.803Z,29.80
2019-02-02T03:28:23.033Z,30.87
2019-02-02T03:30:50.286Z,31.40
2019-02-02T03:33:17.539Z,29.73
2019-02-02T03:35:44.800Z,29.03
2019-02-02T03:38:12.035Z,29.27
2019-02-02T03:40:39.288Z,29.03
2019-02-02T03:43:06.545Z,29.27
2019-02-02T03:45:33.771Z,29.13
2019-02-02T03:48:01.075Z,30.60
2019-02-02T03:50:28.548Z,30.37
2019-02-02T03:52:55.794Z,29.67
2019-02-02T03:55:23.081Z,29.40
2019-02-02T03:57:50.306Z,30.00
2019-02-02T04:00:18.996Z,33.90
2019-02-02T04:02:46.461Z,33.83
2019-02-02T04:05:16.367Z,32.87
2019-02-02T04:07:43.738Z,34.97
2019-02-02T04:10:11.079Z,31.30
2019-02-02T04:12:38.328Z,33.27
2019-02-02T04:15:12.697Z,32.80
2019-02-02T04:17:42.392Z,32.50
2019-02-02T04:20:12.551Z,33.13
2019-02-02T04:22:39.791Z,31.53
2019-02-02T04:25:07.837Z,33.73
2019-02-02T04:27:37.755Z,30.47
2019-02-02T04:30:07.700Z,30.00
2019-02-02T04:32:34.942Z,34.47
2019-02-02T04:35:02.305Z,30.67
2019-02-02T04:37:29.573Z,28.17
2019-02-02T04:39:56.811Z,28.10
2019-02-02T04:42:24.061Z,32.63
2019-02-02T04:44:51.403Z,30.37
2019-02-02T04:47:18.668Z,31.27
2019-02-02T04:49:45.903Z,29.23
2019-02-02T04:52:13.164Z,32.77
2019-02-02T04:54:40.481Z,30.13
2019-02-02T04:57:07.708Z,30.57
2019-02-02T04:59:34.975Z,33.43
2019-02-02T05:02:02.215Z,33.73
2019-02-02T05:04:29.531Z,32.57
2019-02-02T05:06:56.805Z,32.50
2019-02-02T05:09:24.143Z,33.90
2019-02-02T05:11:51.391Z,30.17
2019-02-02T05:14:18.615Z,31.83
2019-02-02T05:16:45.853Z,34.67
2019-02-02T05:19:13.085Z,32.90
2019-02-02T05:21:40.324Z,34.50
2019-02-02T05:24:07.621Z,32.67
2019-02-02T05:26:34.864Z,33.50
2019-02-02T05:29:02.172Z,32.17
2019-02-02T05:31:29.476Z,32.47
2019-02-02T05:33:56.829Z,31.17
2019-02-02T05:36:24.152Z,30.60
2019-02-02T05:38:51.424Z,31.10
2019-02-02T05:41:18.671Z,31.27
2019-02-02T05:43:45.923Z,33.07
2019-02-02T05:46:13.189Z,34.63
2019-02-02T05:48:40.447Z,34.43
2019-02-02T05:51:07.690Z,32.43
2019-02-02T05:53:34.955Z,32.20
2019-02-02T05:56:02.195Z,35.50
2019-02-02T05:58:29.522Z,32.30
2019-02-02T06:00:56.892Z,32.13
2019-02-02T06:03:24.151Z,29.43
2019-02-02T06:05:51.480Z,31.33
2019-02-02T06:08:18.740Z,33.33
2019-02-02T06:10:46.001Z,32.40
2019-02-02T06:13:13.231Z,32.97
2019-02-02T06:15:40.892Z,31.77
2019-02-02T06:18:08.163Z,32.30
2019-02-02T06:20:35.447Z,31.23
2019-02-02T06:23:02.740Z,29.53
2019-02-02T06:25:30.015Z,33.27
2019-02-02T06:27:57.256Z,28.10
2019-02-02T06:30:24.823Z,27.57
2019-02-02T06:32:52.143Z,31.27
2019-02-02T06:35:19.415Z,30.40
2019-02-02T06:38:06.582Z,31.77
2019-02-02T06:40:33.876Z,31.17
2019-02-02T06:43:01.108Z,31.67
2019-02-02T06:45:33.447Z,30.87
2019-02-02T06:48:00.789Z,31.07
2019-02-02T06:50:28.159Z,32.17
2019-02-02T06:52:55.851Z,32.67
2019-02-02T06:55:23.111Z,31.03
2019-02-02T06:57:50.396Z,29.83
2019-02-02T07:00:19.551Z,31.93
2019-02-02T07:02:47.000Z,33.23
2019-02-02T07:05:14.395Z,46.53
2019-02-02T07:07:41.631Z,40.07
2019-02-02T07:10:11.958Z,43.27
2019-02-02T07:12:39.252Z,41.93
2019-02-02T07:15:08.459Z,38.50
2019-02-02T07:17:35.804Z,35.87
2019-02-02T07:20:03.957Z,37.40
2019-02-02T07:22:31.242Z,34.73
2019-02-02T07:24:58.500Z,34.93
2019-02-02T07:27:25.803Z,41.33
2019-02-02T07:29:53.063Z,44.23
2019-02-02T07:32:20.330Z,49.63
2019-02-02T07:34:47.778Z,55.47
2019-02-02T07:37:15.099Z,47.40
2019-02-02T07:39:42.340Z,42.80
2019-02-02T07:42:09.592Z,77.10
2019-02-02T07:44:36.858Z,51.07
2019-02-02T07:47:04.122Z,55.70
2019-02-02T07:49:31.365Z,50.70
2019-02-02T07:51:58.588Z,41.13
2019-02-02T07:54:25.843Z,38.20
2019-02-02T07:56:53.081Z,38.20
2019-02-02T07:59:20.315Z,50.97
2019-02-02T08:01:47.559Z,44.03
2019-02-02T08:04:14.796Z,37.37
2019-02-02T08:06:42.043Z,39.43
2019-02-02T08:09:09.307Z,35.27
2019-02-02T08:11:36.580Z,36.77
2019-02-02T08:14:04.661Z,40.63
2019-02-02T08:16:31.892Z,40.17
2019-02-02T08:18:59.160Z,42.30
2019-02-02T08:21:26.427Z,41.63
2019-02-02T08:23:53.698Z,41.63
2019-02-02T08:26:20.971Z,41.17
2019-02-02T08:28:48.284Z,42.10
2019-02-02T08:31:15.604Z,39.30
2019-02-02T08:33:45.341Z,38.67
2019-02-02T08:36:11.994Z,39.73
2019-02-02T08:38:39.488Z,36.53
2019-02-02T08:41:06.731Z,38.37
2019-02-02T08:43:33.999Z,39.13
2019-02-02T08:46:01.343Z,38.83
2019-02-02T08:48:28.635Z,39.53
2019-02-02T08:50:55.974Z,37.27
2019-02-02T08:53:23.205Z,37.27
2019-02-02T08:55:52.029Z,37.67
2019-02-02T08:58:19.764Z,36.47
2019-02-02T09:00:47.920Z,36.50
2019-02-02T09:03:15.168Z,31.33
2019-02-02T09:05:42.460Z,33.90
2019-02-02T09:08:09.753Z,34.17
2019-02-02T09:10:37.028Z,37.93
2019-02-02T09:13:04.626Z,38.33
2019-02-02T09:15:31.872Z,35.07
2019-02-02T09:17:59.198Z,37.97
2019-02-02T09:20:26.433Z,37.00
2019-02-02T09:23:02.919Z,42.43
2019-02-02T09:25:22.881Z,40.23
2019-02-02T09:27:50.200Z,41.40
2019-02-02T09:30:25.799Z,42.40
2019-02-02T09:32:53.175Z,45.13
2019-02-02T09:35:20.502Z,41.53
2019-02-02T09:37:47.840Z,39.63
2019-02-02T09:40:16.351Z,41.13
2019-02-02T09:42:43.595Z,38.80
2019-02-02T09:45:11.941Z,39.13
2019-02-02T09:47:39.264Z,39.77
2019-02-02T09:50:09.365Z,42.03
2019-02-02T09:52:36.596Z,42.10
2019-02-02T09:55:05.575Z,40.23
2019-02-02T09:57:32.951Z,41.30
2019-02-02T10:00:00.271Z,41.27
2019-02-02T10:02:27.540Z,41.63
2019-02-02T10:04:54.833Z,40.57
2019-02-02T10:07:22.064Z,40.97
2019-02-02T10:09:49.306Z,38.70
2019-02-02T10:12:16.823Z,39.73
2019-02-02T10:14:44.063Z,39.97
2019-02-02T10:17:11.463Z,40.20
2019-02-02T10:19:39.000Z,39.10
2019-02-02T10:22:06.244Z,37.73
2019-02-02T10:24:33.571Z,38.73
2019-02-02T10:27:00.930Z,38.93
2019-02-02T10:29:28.355Z,38.17
2019-02-02T10:31:55.788Z,39.70
2019-02-02T10:34:23.028Z,40.23
2019-02-02T10:36:50.380Z,39.33
2019-02-02T10:39:17.639Z,40.97
2019-02-02T10:41:44.989Z,39.20
2019-02-02T10:44:14.388Z,42.33
2019-02-02T10:46:41.899Z,41.50
2019-02-02T10:49:09.752Z,38.57
2019-02-02T10:51:37.027Z,42.73
2019-02-02T10:54:05.595Z,42.83
2019-02-02T10:56:33.139Z,42.27
2019-02-02T10:59:00.392Z,42.63
2019-02-02T11:01:27.752Z,41.37
2019-02-02T11:03:55.135Z,41.77
2019-02-02T11:06:22.411Z,42.53
2019-02-02T11:08:49.806Z,42.83
2019-02-02T11:11:17.287Z,41.57
2019-02-02T11:13:45.789Z,44.33
2019-02-02T11:16:13.251Z,44.17
2019-02-02T11:18:40.652Z,43.93
2019-02-02T11:21:08.477Z,43.37
2019-02-02T11:23:36.941Z,43.40
2019-02-02T11:26:04.255Z,42.80
2019-02-02T11:28:31.555Z,44.17
2019-02-02T11:30:58.791Z,44.00
2019-02-02T11:33:26.036Z,45.90
2019-02-02T11:35:53.292Z,42.47
2019-02-02T11:38:20.524Z,45.87
2019-02-02T11:40:47.775Z,46.60
2019-02-02T11:43:15.041Z,48.90
2019-02-02T11:45:42.265Z,48.10
2019-02-02T11:48:09.613Z,49.90
2019-02-02T11:50:36.895Z,49.37
2019-02-02T11:53:04.233Z,48.63
2019-02-02T11:55:33.363Z,48.63
2019-02-02T11:58:00.806Z,49.67
2019-02-02T12:00:31.928Z,49.63
2019-02-02T12:02:59.338Z,49.83
2019-02-02T12:05:26.971Z,47.30
2019-02-02T12:07:54.477Z,47.97
2019-02-02T12:10:24.700Z,46.30
2019-02-02T12:12:53.131Z,44.67
2019-02-02T12:15:20.549Z,46.10
2019-02-02T12:17:51.981Z,48.67
2019-02-02T12:20:19.886Z,48.13
2019-02-02T12:22:47.315Z,46.03
2019-02-02T12:25:14.851Z,44.47
2019-02-02T12:27:42.507Z,46.73
2019-02-02T12:30:13.191Z,55.17
2019-02-02T12:39:57.091Z,50.27
2019-02-02T12:42:21.840Z,45.27
2019-02-02T12:44:49.184Z,48.03
2019-02-02T12:47:37.700Z,45.80
2019-02-02T12:50:05.255Z,47.90
2019-02-02T12:52:36.208Z,44.97
2019-02-02T12:55:26.098Z,42.53
2019-02-02T12:58:28.439Z,42.73
2019-02-02T13:01:56.149Z,42.07
2019-02-02T13:12:09.318Z,40.53
2019-02-02T13:14:36.676Z,42.93
2019-02-02T13:17:11.285Z,42.00
2019-02-02T13:29:08.050Z,50.50
2019-02-02T13:31:35.370Z,45.23
2019-02-02T13:34:03.416Z,44.40
2019-02-02T13:36:30.903Z,43.93
2019-02-02T13:38:58.231Z,42.10
2019-02-02T13:41:25.545Z,42.17
2019-02-02T13:43:52.799Z,40.97
2019-02-02T13:46:21.725Z,43.77
2019-02-02T13:48:51.141Z,37.83
2019-02-02T13:51:18.712Z,40.37
2019-02-02T13:53:46.013Z,40.80
2019-02-02T13:56:13.459Z,43.93
2019-02-02T13:58:41.466Z,40.50
2019-02-02T14:01:08.909Z,42.63
2019-02-02T14:03:36.591Z,56.43
2019-02-02T14:06:04.041Z,49.27
2019-02-02T14:08:31.367Z,44.60
2019-02-02T14:10:59.023Z,41.77
2019-02-02T14:13:26.305Z,43.80
2019-02-02T14:15:53.933Z,45.97
2019-02-02T14:18:21.224Z,43.97
2019-02-02T14:20:48.544Z,43.60
2019-02-02T14:23:15.931Z,44.57
2019-02-02T14:25:43.359Z,43.87
2019-02-02T14:28:10.627Z,42.33
2019-02-02T14:30:37.955Z,41.50
2019-02-02T14:33:13.797Z,43.17
2019-02-02T14:35:34.460Z,44.70
2019-02-02T14:38:01.757Z,43.37
2019-02-02T14:40:29.038Z,44.40
2019-02-02T14:42:56.398Z,42.77
2019-02-02T14:45:27.347Z,45.70
2019-02-02T14:47:55.680Z,43.80
2019-02-02T14:50:24.878Z,43.77
2019-02-02T14:52:52.331Z,44.73
2019-02-02T14:55:25.075Z,43.87
2019-02-02T14:57:52.612Z,44.37
2019-02-02T15:00:21.878Z,45.67
2019-02-02T15:02:49.253Z,43.93
2019-02-02T15:05:18.795Z,43.57
2019-02-02T15:07:46.171Z,42.07
2019-02-02T15:10:13.553Z,43.63
2019-02-02T15:12:40.834Z,47.00
2019-02-02T15:15:09.408Z,46.07
2019-02-02T15:17:36.766Z,45.60
2019-02-02T15:20:08.415Z,45.37
2019-02-02T15:22:35.728Z,46.77
2019-02-02T15:25:04.220Z,45.90
2019-02-02T15:27:31.499Z,43.40
2019-02-02T15:29:58.884Z,45.73
2019-02-02T15:32:28.243Z,44.93
2019-02-02T15:34:55.471Z,42.73
2019-02-02T15:37:22.748Z,44.53
2019-02-02T15:39:50.039Z,53.30
2019-02-02T15:42:17.296Z,44.53
2019-02-02T15:44:44.581Z,42.33
2019-02-02T15:47:11.824Z,45.53
2019-02-02T15:49:39.109Z,44.33
2019-02-02T15:52:06.375Z,46.90
2019-02-02T15:54:33.716Z,49.03
2019-02-02T15:57:01.089Z,46.33
2019-02-02T15:59:28.415Z,47.17
2019-02-02T16:01:56.132Z,46.63
2019-02-02T16:04:23.503Z,47.47
2019-02-02T16:06:50.723Z,43.87
2019-02-02T16:09:18.110Z,53.07
2019-02-02T16:11:45.348Z,47.13
2019-02-02T16:14:12.659Z,48.63
2019-02-02T16:16:42.328Z,46.23
2019-02-02T16:19:09.620Z,43.37
2019-02-02T16:21:36.868Z,41.90
2019-02-02T16:24:04.171Z,43.43
2019-02-02T16:26:31.415Z,42.47
2019-02-02T16:28:58.677Z,42.73
2019-02-02T16:31:25.952Z,42.07
2019-02-02T16:34:01.702Z,42.57
2019-02-02T16:36:22.853Z,47.03
2019-02-02T16:38:50.173Z,42.57
2019-02-02T16:41:17.533Z,44.10
2019-02-02T16:43:44.804Z,43.30
2019-02-02T16:46:12.155Z,43.47
2019-02-02T16:48:39.396Z,43.80
2019-02-02T16:51:06.638Z,46.03
2019-02-02T16:53:33.892Z,43.57
2019-02-02T16:56:01.143Z,46.67
2019-02-02T16:58:28.419Z,50.83
2019-02-02T17:00:55.647Z,47.53
2019-02-02T17:03:23.784Z,49.10
2019-02-02T17:05:51.059Z,47.73
2019-02-02T17:08:18.333Z,49.03
2019-02-02T17:10:45.837Z,52.63
2019-02-02T17:13:13.484Z,48.37
2019-02-02T17:15:40.815Z,48.47
2019-02-02T17:18:08.056Z,46.97
2019-02-02T17:20:37.712Z,48.07
2019-02-02T17:23:05.087Z,49.40
2019-02-02T17:25:32.329Z,44.17
2019-02-02T17:27:59.673Z,45.73
2019-02-02T17:30:26.928Z,45.67
2019-02-02T17:32:55.975Z,47.03
2019-02-02T17:35:23.295Z,47.13
2019-02-02T17:37:50.543Z,56.83
2019-02-02T17:40:20.062Z,56.10
2019-02-02T17:42:47.407Z,54.53
2019-02-02T17:45:15.880Z,52.43
2019-02-02T17:47:43.171Z,50.63
2019-02-02T17:50:15.115Z,46.23
2019-02-02T17:52:42.375Z,45.77
2019-02-02T17:55:09.948Z,45.57
2019-02-02T17:57:37.368Z,50.63
2019-02-02T18:00:07.677Z,51.03
2019-02-02T18:02:34.932Z,49.30
2019-02-02T18:05:02.166Z,49.70
2019-02-02T18:07:29.403Z,49.17
2019-02-02T18:09:56.689Z,50.67
2019-02-02T18:12:24.019Z,51.43
2019-02-02T18:14:51.294Z,49.67
2019-02-02T18:17:18.576Z,57.13
2019-02-02T18:19:45.811Z,53.47
2019-02-02T18:22:13.060Z,56.33
2019-02-02T18:24:40.367Z,49.07
2019-02-02T18:27:07.715Z,49.60
2019-02-02T18:29:34.949Z,56.87
2019-02-02T18:32:12.860Z,57.07
2019-02-02T18:34:31.393Z,56.77
2019-02-02T18:36:58.742Z,55.87
2019-02-02T18:39:26.174Z,53.00
2019-02-02T18:41:59.664Z,51.13
2019-02-02T18:44:28.731Z,52.87
2019-02-02T18:46:56.416Z,54.30
2019-02-02T18:49:24.044Z,57.57
2019-02-02T18:51:51.851Z,54.13
2019-02-02T18:54:19.412Z,55.00
2019-02-02T18:56:46.941Z,55.90
2019-02-02T18:59:14.283Z,52.10
2019-02-02T19:01:41.756Z,50.70
2019-02-02T19:04:08.996Z,48.40
2019-02-02T19:06:39.709Z,49.40
2019-02-02T19:09:24.633Z,50.80
2019-02-02T19:11:52.091Z,49.83
2019-02-02T19:14:25.547Z,52.07
2019-02-02T19:17:01.311Z,48.00
2019-02-02T19:19:28.736Z,49.10
2019-02-02T19:21:55.973Z,52.63
2019-02-02T19:24:23.227Z,50.83
2019-02-02T19:26:50.502Z,51.37
2019-02-02T19:29:17.997Z,52.27
2019-02-02T19:31:45.712Z,51.97
2019-02-02T19:34:13.667Z,54.77
2019-02-02T19:36:40.983Z,51.07
2019-02-02T19:39:18.054Z,51.00
2019-02-02T19:41:45.826Z,48.87
2019-02-02T19:44:13.178Z,49.57
2019-02-02T19:46:40.444Z,46.53
2019-02-02T19:49:23.012Z,48.20
2019-02-02T19:51:50.541Z,44.67
2019-02-02T19:54:18.224Z,44.30
2019-02-02T19:56:45.949Z,41.53
2019-02-02T20:00:15.286Z,40.10
2019-02-02T20:02:43.748Z,40.30
2019-02-02T20:05:11.798Z,39.83
2019-02-02T20:07:39.188Z,39.10
2019-02-02T20:10:08.963Z,47.27
2019-02-02T20:12:39.978Z,41.97
2019-02-02T20:15:09.255Z,41.43
2019-02-02T20:17:36.605Z,37.83
2019-02-02T20:20:05.323Z,36.53
2019-02-02T20:22:33.334Z,38.27
2019-02-02T20:25:01.200Z,36.23
2019-02-02T20:28:01.216Z,37.00
2019-02-02T20:30:29.877Z,35.97
2019-02-02T20:32:57.251Z,38.67
2019-02-02T20:35:39.812Z,36.23
2019-02-02T20:37:56.915Z,37.23
2019-02-02T20:40:27.993Z,36.67
2019-02-02T20:42:55.739Z,37.17
2019-02-02T20:45:48.332Z,31.17
2019-02-02T20:51:06.386Z,31.13
2019-02-02T20:53:33.756Z,30.50
2019-02-02T20:56:01.095Z,30.43
2019-02-02T20:58:28.470Z,28.30
2019-02-02T21:01:05.805Z,27.50
2019-02-02T21:03:33.180Z,27.77
2019-02-02T21:06:00.711Z,26.07
2019-02-02T21:08:28.027Z,26.50
2019-02-02T21:10:55.288Z,25.30
2019-02-02T21:13:22.524Z,26.77
2019-02-02T21:15:49.903Z,26.27
2019-02-02T21:18:17.583Z,25.37
2019-02-02T21:20:44.817Z,24.20
2019-02-02T21:23:13.256Z,25.57
2019-02-02T21:25:40.627Z,24.50
2019-02-02T21:28:08.165Z,26.37
2019-02-02T21:30:35.479Z,22.27
2019-02-02T21:33:03.671Z,23.83
2019-02-02T21:35:30.909Z,23.93
2019-02-02T21:37:58.153Z,24.43
2019-02-02T21:40:27.531Z,21.53
2019-02-02T21:42:55.390Z,22.47
2019-02-02T21:45:23.077Z,21.17
2019-02-02T21:47:51.174Z,22.80
2019-02-02T21:50:22.164Z,21.60
2019-02-02T21:52:50.196Z,21.90
2019-02-02T21:55:22.312Z,22.63
2019-02-02T21:57:49.753Z,23.60
2019-02-02T22:00:22.753Z,22.57
2019-02-02T22:02:50.573Z,21.63
2019-02-02T22:05:18.090Z,23.30
2019-02-02T22:07:47.354Z,21.97
2019-02-02T22:10:16.316Z,22.80
2019-02-02T22:12:43.805Z,22.60
2019-02-02T22:15:17.368Z,22.00
2019-02-02T22:17:44.720Z,24.53
2019-02-02T22:20:12.620Z,22.90
2019-02-02T22:22:40.155Z,21.70
2019-02-02T22:25:10.928Z,22.57
2019-02-02T22:27:39.196Z,22.60
2019-02-02T22:30:32.822Z,22.67
2019-02-02T22:33:00.139Z,28.20
2019-02-02T22:35:29.963Z,28.07
2019-02-02T22:37:57.980Z,31.13
2019-02-02T22:40:26.239Z,29.20
2019-02-02T22:42:53.817Z,29.27
2019-02-02T22:45:22.172Z,28.60
2019-02-02T22:47:50.461Z,24.43
2019-02-02T22:50:19.641Z,25.67
2019-02-02T22:52:50.625Z,23.57
2019-02-02T22:55:19.372Z,24.30
2019-02-02T22:57:47.135Z,22.20
2019-02-02T23:01:10.033Z,18.27
2019-02-02T23:04:16.756Z,16.40
2019-02-02T23:06:57.115Z,15.17
2019-02-02T23:10:26.451Z,14.37
2019-02-02T23:13:20.554Z,14.17
2019-02-02T23:16:29.231Z,13.50
2019-02-02T23:18:54.237Z,15.17
2019-02-02T23:21:25.998Z,15.17
2019-02-02T23:23:58.350Z,15.30
2019-02-02T23:26:27.006Z,14.80
2019-02-02T23:28:55.672Z,15.80
2019-02-02T23:31:30.138Z,16.60
2019-02-02T23:33:59.114Z,16.00
2019-02-02T23:36:27.225Z,15.90
2019-02-02T23:38:56.241Z,15.90
2019-02-02T23:41:26.461Z,15.87
2019-02-02T23:43:58.709Z,15.93
2019-02-02T23:46:26.397Z,15.47
2019-02-02T23:48:55.648Z,15.33
2019-02-02T23:51:23.310Z,16.07
2019-02-02T23:56:40.597Z,15.77
2019-02-02T23:59:16.422Z,14.37
